Latest Weather Observations for Carnarvon

IDW60801

Issued at 2:05 pm WST Friday 31 October 2014 (issued every 30 minutes, with the page automatically refreshed every 10 minutes)

About weather observations | Map of weather stations | Latest weather observations for WA | Other Formats
Station Details ID: 006011 Name: CARNARVON AIRPORT Lat: -24.89 Lon: 113.67 Height: 4.0 m
Data from the previous 72 hours. | See also: Recent months at Carnarvon
Date/Time
WST
Temp
°C
App
Temp
°C
Dew
Point
Rel
Hum
%
Delta-T
°C
Wind Press
QNH
hPa
Press
MSL
hPa
Rain
since 9 am
mm
Dir
 
Spd
km/h
Gust
km/h
Spd
kts
Gust
kts
31/02:00pm 24.6 18.8 12.6 47 6.9 SSW 35 44 19 24 1013.7 - 0.0
31/01:30pm 24.2 19.0 12.9 49 6.5 SSW 32 39 17 21 1014.0 - 0.0
31/01:00pm 24.6 19.3 13.2 49 6.6 SSW 33 43 18 23 1014.6 - 0.0
31/12:30pm 24.7 19.3 12.1 45 7.2 S 32 43 17 23 1015.0 - 0.0
31/12:00pm 24.1 18.2 10.3 41 7.6 S 32 43 17 23 1015.3 1015.3 0.0
31/11:30am 24.5 18.4 10.4 41 7.8 S 33 46 18 25 1015.6 - 0.0
31/11:00am 23.5 17.2 10.9 45 7.0 S 35 46 19 25 1015.9 - 0.0
31/10:30am 23.4 17.3 10.3 43 7.2 S 33 48 18 26 1016.1 - 0.0
31/10:00am 23.0 17.0 10.9 46 6.7 S 33 46 18 25 1016.4 - 0.0
31/09:30am 22.3 16.3 10.9 48 6.3 S 33 46 18 25 1016.3 - 0.0
31/09:00am 22.0 16.0 10.9 49 6.1 SSE 33 46 18 25 1016.6 1016.6 0.0
31/08:30am 21.8 15.9 11.3 51 5.8 SSE 33 48 18 26 1016.7 - 0.0
31/08:00am 20.8 15.2 11.4 55 5.2 SSE 32 44 17 24 1016.6 - 0.0
31/07:30am 19.8 14.2 11.4 58 4.6 SSE 32 39 17 21 1016.5 - 0.0
31/07:00am 19.5 14.7 11.5 60 4.4 SSE 28 37 15 20 1016.1 - 0.0
31/06:30am 19.0 14.5 11.5 61 4.1 SSE 26 37 14 20 1015.8 - 0.0
31/06:00am 18.8 14.3 11.5 62 4.0 SSE 26 32 14 17 1015.3 1015.3 0.0
31/05:30am 18.7 13.1 11.6 63 3.9 S 32 44 17 24 1014.9 - 0.0
31/05:00am 18.8 13.3 11.9 64 3.8 SSE 32 41 17 22 1014.7 - 0.0
31/04:30am 19.2 14.1 12.0 63 4.0 SSE 30 39 16 21 1014.4 - 0.0
31/04:00am 19.3 14.8 12.5 64 3.8 SSE 28 37 15 20 1014.0 - 0.0
31/03:30am 19.5 15.1 12.9 65 3.7 SSE 28 37 15 20 1013.8 - 0.0
31/03:00am 19.7 15.5 13.4 67 3.6 S 28 37 15 20 1013.9 1013.9 0.0
31/02:30am 19.5 14.7 12.9 65 3.7 S 30 39 16 21 1013.9 - 0.0
31/02:00am 19.7 15.0 13.2 66 3.7 S 30 41 16 22 1013.9 - 0.0
31/01:30am 19.9 14.8 13.0 64 3.9 S 32 41 17 22 1014.3 - 0.0
31/01:00am 20.1 15.0 13.2 64 3.9 S 32 44 17 24 1014.9 - 0.0
31/12:30am 20.1 15.0 13.6 66 3.7 S 33 43 18 23 1015.1 - 0.0
31/12:00am 20.1 15.0 13.6 66 3.7 S 33 44 18 24 1015.3 1015.3 0.0
 
Date/Time
WST
Temp
°C
App
Temp
°C
Dew
Point
Rel
Hum
%
Delta-T
°C
Wind Press
QNH
hPa
Press
MSL
hPa
Rain
since 9 am
mm
Dir
 
Spd
km/h
Gust
km/h
Spd
kts
Gust
kts
30/11:30pm 20.4 15.7 14.2 67 3.6 S 32 39 17 21 1015.3 - 0.0
30/11:00pm 20.5 15.6 14.3 67 3.6 S 33 43 18 23 1015.5 - 0.0
30/10:30pm 20.6 16.5 14.8 69 3.4 S 30 43 16 23 1015.3 - 0.0
30/10:00pm 20.5 15.2 14.1 66 3.7 S 35 44 19 24 1015.6 - 0.0
30/09:30pm 20.8 16.1 14.8 68 3.5 S 33 43 18 23 1015.5 - 0.0
30/09:00pm 20.6 15.7 14.4 67 3.6 S 33 46 18 25 1015.2 1015.2 0.0
30/08:30pm 20.8 15.9 15.2 70 3.3 SSW 35 44 19 24 1015.1 - 0.0
30/08:00pm 21.0 15.7 15.4 70 3.3 SSW 37 48 20 26 1014.8 - 0.0
30/07:30pm 21.2 16.3 15.3 69 3.5 S 35 50 19 27 1014.8 - 0.0
30/07:00pm 21.4 16.3 15.7 70 3.4 SSW 37 48 20 26 1014.1 - 0.0
30/06:30pm 21.8 16.8 16.0 69 3.5 SSW 37 50 20 27 1013.7 - 0.0
30/06:00pm 22.4 17.4 16.1 67 3.8 SSW 37 48 20 26 1013.4 1013.4 0.0
30/05:30pm 22.9 18.2 15.8 64 4.3 SSW 35 46 19 25 1013.0 - 0.0
30/05:00pm 23.4 18.6 16.5 65 4.2 SSW 37 48 20 26 1012.9 - 0.0
30/04:30pm 24.4 19.7 15.8 58 5.2 SSW 35 46 19 25 1012.8 - 0.0
30/04:00pm 24.1 19.0 14.7 55 5.6 SSW 35 43 19 23 1012.8 - 0.0
30/03:30pm 24.8 20.5 15.3 55 5.7 SSW 32 43 17 23 1012.9 - 0.0
30/03:00pm 25.2 21.1 14.8 52 6.2 SSW 30 39 16 21 1013.0 1013.0 0.0
30/02:30pm 24.6 21.4 15.3 56 5.6 SSW 26 33 14 18 1013.1 - 0.0
30/02:00pm 24.9 20.9 14.1 51 6.4 SSW 28 35 15 19 1013.4 - 0.0
30/01:30pm 24.3 21.0 14.9 55 5.6 SSW 26 33 14 18 1013.7 - 0.0
30/01:00pm 24.7 21.4 15.0 54 5.8 SSW 26 33 14 18 1014.0 - 0.0
30/12:30pm 24.2 21.0 15.2 57 5.4 SSW 26 33 14 18 1014.3 - 0.0
30/12:00pm 24.2 21.3 15.2 57 5.4 SSW 24 30 13 16 1014.5 1014.5 0.0
30/11:30am 24.0 21.1 15.1 57 5.3 SSW 24 32 13 17 1014.9 - 0.0
30/11:00am 24.1 21.1 14.9 56 5.5 SSW 24 33 13 18 1015.0 - 0.0
30/10:30am 23.7 20.4 15.0 58 5.2 S 26 35 14 19 1015.3 - 0.0
30/10:00am 23.1 19.6 15.6 62 4.5 S 28 35 15 19 1015.5 - 0.0
30/09:30am 23.4 19.7 15.0 59 5.0 S 28 35 15 19 1015.5 - 0.0
30/09:00am 23.4 19.3 14.8 58 5.1 S 30 39 16 21 1015.6 1015.6 0.0
30/08:30am 23.2 19.9 15.0 60 4.9 S 26 37 14 20 1015.6 - 0.0
30/08:00am 22.6 19.7 15.2 63 4.4 S 24 33 13 18 1015.5 - 0.0
30/07:30am 21.5 17.8 15.1 67 3.8 SSE 28 35 15 19 1015.3 - 0.0
30/07:00am 21.1 17.9 15.4 70 3.4 SSE 26 32 14 17 1015.2 - 0.0
30/06:30am 20.9 18.6 15.7 72 3.1 SSE 22 28 12 15 1015.0 - 0.0
30/06:00am 20.4 18.6 16.1 76 2.6 SSE 20 28 11 15 1014.6 1014.6 0.0
30/05:30am 20.2 17.6 16.0 77 2.5 S 24 33 13 18 1014.3 - 0.0
30/05:00am 20.0 17.4 16.0 78 2.4 S 24 32 13 17 1014.1 - 0.0
30/04:30am 19.9 17.3 16.0 78 2.3 S 24 32 13 17 1014.1 - 0.0
30/04:00am 20.0 17.1 16.2 79 2.3 S 26 35 14 19 1013.9 - 0.0
30/03:30am 20.0 17.4 16.0 78 2.4 S 24 32 13 17 1013.9 - 0.0
30/03:00am 19.9 17.7 16.0 78 2.3 S 22 32 12 17 1013.9 1013.9 0.0
30/02:30am 20.1 18.0 16.1 78 2.4 S 22 32 12 17 1013.9 - 0.0
30/02:00am 20.3 17.9 16.3 78 2.4 S 24 32 13 17 1014.0 - 0.0
30/01:30am 19.9 18.3 16.0 78 2.3 S 19 24 10 13 1014.1 - 0.0
30/01:00am 20.2 17.6 16.0 77 2.5 S 24 32 13 17 1014.4 - 0.0
30/12:30am 20.3 17.9 16.3 78 2.4 S 24 33 13 18 1014.4 - 0.0
30/12:00am 20.5 17.7 16.3 77 2.5 S 26 33 14 18 1014.6 1014.6 0.0
 
Date/Time
WST
Temp
°C
App
Temp
°C
Dew
Point
Rel
Hum
%
Delta-T
°C
Wind Press
QNH
hPa
Press
MSL
hPa
Rain
since 9 am
mm
Dir
 
Spd
km/h
Gust
km/h
Spd
kts
Gust
kts
29/11:30pm 20.7 17.6 16.6 77 2.5 S 28 37 15 20 1014.9 - 0.0
29/11:00pm 20.9 17.5 16.8 77 2.5 S 30 39 16 21 1015.1 - 0.0
29/10:30pm 21.0 18.0 16.9 77 2.5 S 28 39 15 21 1015.2 - 0.0
29/10:00pm 21.1 17.7 16.8 76 2.6 S 30 39 16 21 1015.3 - 0.0
29/09:30pm 21.2 17.4 16.8 76 2.7 S 32 39 17 21 1015.2 - 0.0
29/09:00pm 21.2 17.6 17.1 77 2.5 S 32 39 17 21 1015.2 1015.2 0.0
29/08:30pm 21.3 17.6 16.9 76 2.7 S 32 43 17 23 1015.1 - 0.0
29/08:00pm 21.5 17.2 16.9 75 2.8 S 35 44 19 24 1015.0 - 0.0
29/07:30pm 21.7 17.9 17.3 76 2.7 SSW 33 46 18 25 1014.8 - 0.0
29/07:00pm 21.9 17.9 17.7 77 2.6 SSW 35 46 19 25 1014.3 - 0.0
29/06:30pm 22.5 18.7 18.0 75 2.8 SSW 35 50 19 27 1013.9 - 0.0
29/06:00pm 23.0 19.1 17.9 73 3.2 SSW 35 44 19 24 1013.8 1013.8 0.0
29/05:30pm 24.1 19.9 17.1 65 4.3 SSW 35 46 19 25 1013.7 - 0.0
29/05:00pm 24.3 20.0 17.0 63 4.5 SSW 35 48 19 26 1013.4 - 0.0
29/04:30pm 24.8 21.3 17.8 65 4.4 SSW 33 41 18 22 1013.2 - 0.0
29/04:00pm 25.5 22.6 18.0 63 4.7 SSW 30 39 16 21 1013.1 - 0.0
29/03:30pm 25.5 23.2 18.4 65 4.5 SSW 28 33 15 18 1013.1 - 0.0
29/03:00pm 25.7 23.3 18.3 63 4.7 SSW 28 35 15 19 1013.1 1013.1 0.0
29/02:30pm 25.5 22.8 17.5 61 5.0 SSW 28 33 15 18 1013.2 - 0.0
29/02:00pm 25.6 23.1 18.0 63 4.8 SSW 28 33 15 18 1013.3 - 0.0
29/01:30pm 25.5 23.2 17.7 62 4.9 SW 26 35 14 19 1013.5 - 0.0
29/01:00pm 25.3 23.9 18.0 64 4.6 SSW 22 28 12 15 1013.8 - 0.0
29/12:30pm 25.2 23.8 17.9 64 4.6 SSW 22 30 12 16 1014.1 - 0.0
29/12:00pm 25.1 23.3 17.9 64 4.5 SSW 24 30 13 16 1014.3 1014.3 0.0
29/11:30am 24.2 22.7 17.8 67 4.0 SSW 22 30 12 16 1014.6 - 0.0
29/11:00am 24.1 22.2 17.7 67 4.0 SSW 24 32 13 17 1014.7 - 0.0
29/10:30am 24.0 21.7 17.7 68 3.9 S 26 33 14 18 1014.8 - 0.0
29/10:00am 23.6 21.6 17.5 68 3.8 S 24 30 13 16 1014.9 - 0.0
29/09:30am 23.4 21.1 17.6 70 3.6 S 26 32 14 17 1015.0 - 0.0
29/09:00am 24.0 21.7 17.7 68 3.9 S 26 33 14 18 1015.0 1015.0 0.0
29/08:42am 24.3 21.6 17.6 66 4.2 S 28 35 15 19 1014.8 - 0.0
29/08:30am 23.4 20.7 17.6 70 3.6 S 28 35 15 19 1014.8 - 0.0
29/08:25am 23.3 20.6 17.5 70 3.6 S 28 35 15 19 1014.7 - 0.0
29/08:00am 23.5 21.8 18.1 71 3.4 S 24 32 13 17 1014.6 - 0.0
29/07:30am 22.8 20.9 17.6 72 3.2 S 24 30 13 16 1014.5 - 0.0
29/07:00am 22.1 20.2 17.7 76 2.7 S 24 32 13 17 1014.2 - 0.0
29/06:30am 21.7 20.5 17.5 77 2.6 S 20 26 11 14 1014.1 - 0.0
29/06:00am 20.9 18.9 17.5 81 2.1 S 24 32 13 17 1013.9 1013.9 0.0
29/05:30am 21.1 18.4 17.5 80 2.2 S 28 35 15 19 1013.6 - 0.0
29/05:00am 21.3 18.3 17.7 80 2.2 S 30 39 16 21 1013.6 - 0.0
29/04:30am 21.3 18.2 17.6 79 2.3 S 30 41 16 22 1013.4 - 0.0
29/04:00am 21.3 18.3 17.7 80 2.2 SSW 30 43 16 23 1013.2 - 0.0
29/03:50am 21.3 18.5 18.1 82 2.0 S 30 39 16 21 1013.2 - 0.0
29/03:30am 21.3 18.1 18.1 82 2.0 SSW 32 39 17 21 1013.2 - 0.0
29/03:00am 21.3 19.0 18.4 83 1.8 SSW 28 35 15 19 1013.1 1013.1 0.0
29/02:48am 21.3 18.6 18.4 83 1.8 S 30 39 16 21 1013.0 - 0.0
29/02:46am 21.3 18.7 18.6 84 1.7 S 30 35 16 19 1013.0 - 0.0
29/02:30am 21.2 18.8 18.3 83 1.8 S 28 33 15 18 1012.9 - 0.0
29/02:27am 21.2 18.9 18.5 84 1.7 S 28 35 15 19 1012.9 - 0.0
29/02:09am 21.3 19.1 18.6 84 1.7 S 28 37 15 20 1013.1 - 0.0
29/02:00am 21.3 19.4 18.6 84 1.7 S 26 35 14 19 1012.9 - 0.0
29/01:52am 21.3 19.1 18.6 84 1.7 S 28 37 15 20 1012.9 - 0.0
29/01:30am 21.3 18.6 18.4 83 1.8 SSW 30 39 16 21 1012.9 - 0.0
29/01:00am 21.4 18.3 18.5 83 1.8 SSW 32 41 17 22 1012.7 - 0.0
29/12:30am 21.5 18.7 18.3 82 2.0 SSW 30 39 16 21 1013.0 - 0.0
29/12:00am 21.6 19.5 18.1 80 2.2 S 26 35 14 19 1012.8 1012.8 0.0
 
Date/Time
WST
Temp
°C
App
Temp
°C
Dew
Point
Rel
Hum
%
Delta-T
°C
Wind Press
QNH
hPa
Press
MSL
hPa
Rain
since 9 am
mm
Dir
 
Spd
km/h
Gust
km/h
Spd
kts
Gust
kts
28/11:30pm 21.3 20.4 18.1 82 2.0 S 20 24 11 13 1012.6 - 0.0
28/11:00pm 21.5 19.6 18.5 83 1.9 S 26 35 14 19 1012.7 - 0.0
28/10:30pm 21.5 19.2 18.5 83 1.9 S 28 37 15 20 1012.8 - 0.0
28/10:07pm 21.5 18.8 18.5 83 1.9 S 30 39 16 21 1013.1 - 0.0
28/10:00pm 21.6 18.9 18.4 82 2.0 S 30 39 16 21 1013.1 - 0.0
28/09:33pm 21.7 19.2 18.8 83 1.8 S 30 41 16 22 1013.3 - 0.0
28/09:30pm 21.6 19.0 18.7 83 1.8 S 30 41 16 22 1013.3 - 0.0
28/09:00pm 21.7 18.7 18.7 83 1.9 S 32 41 17 22 1013.2 1013.2 0.0
28/08:30pm 21.7 18.6 18.5 82 2.0 S 32 43 17 23 1012.9 - 0.0
28/08:00pm 21.8 19.6 18.6 82 2.0 SSW 28 37 15 20 1013.0 - 0.0
28/07:30pm 22.0 19.3 18.5 80 2.2 SSW 30 39 16 21 1012.7 - 0.0
28/07:00pm 22.2 19.2 18.7 80 2.2 SSW 32 41 17 22 1012.1 - 0.0
28/06:30pm 22.5 19.2 18.4 77 2.6 SSW 33 41 18 22 1011.8 - 0.0
28/06:00pm 23.1 20.1 18.7 76 2.8 SSW 32 39 17 21 1011.7 1011.7 0.0
28/05:30pm 23.2 20.3 18.9 77 2.7 SW 32 41 17 22 1011.5 - 0.0
28/05:00pm 23.4 21.0 19.2 77 2.7 SSW 30 41 16 22 1011.3 - 0.0
28/04:30pm 23.8 21.1 19.3 76 2.9 SW 32 43 17 23 1011.1 - 0.0
28/04:00pm 24.5 21.8 19.2 72 3.4 SW 32 41 17 22 1011.0 - 0.0
28/03:30pm 24.7 21.8 18.9 70 3.7 SSW 32 39 17 21 1011.3 - 0.0
28/03:00pm 25.4 22.9 18.8 67 4.2 SSW 30 39 16 21 1011.5 1011.5 0.0
28/02:30pm 25.2 22.6 18.6 67 4.2 SSW 30 37 16 20 1011.5 - 0.0

Other Formats:

Comma delimited format used in spreadsheet applications
http://www.bom.gov.au/fwo/IDW60801/IDW60801.94300.axf

JavaScript Object Notation format (JSON) in row-major order
http://www.bom.gov.au/fwo/IDW60801/IDW60801.94300.json